createdAt,value
2019-04-06T00:01:32.483Z,7.30
2019-04-06T00:04:01.580Z,7.30
2019-04-06T00:06:30.459Z,7.30
2019-04-06T00:08:59.378Z,7.30
2019-04-06T00:11:28.516Z,7.30
2019-04-06T00:13:57.666Z,7.30
2019-04-06T00:16:27.175Z,7.30
2019-04-06T00:18:55.950Z,7.30
2019-04-06T00:21:24.874Z,7.30
2019-04-06T00:23:54.036Z,7.30
2019-04-06T00:26:23.234Z,7.40
2019-04-06T00:28:52.083Z,7.40
2019-04-06T00:31:46.231Z,7.40
2019-04-06T00:34:15.402Z,7.40
2019-04-06T00:36:44.464Z,7.40
2019-04-06T00:39:13.493Z,7.40
2019-04-06T00:41:42.376Z,7.40
2019-04-06T00:44:11.138Z,7.50
2019-04-06T00:46:40.415Z,7.40
2019-04-06T00:49:09.585Z,7.40
2019-04-06T00:51:38.676Z,7.40
2019-04-06T00:54:07.514Z,7.40
2019-04-06T00:56:36.325Z,7.40
2019-04-06T00:59:05.549Z,7.40
2019-04-06T01:01:34.656Z,7.40
2019-04-06T01:04:03.573Z,7.40
2019-04-06T01:06:32.741Z,7.40
2019-04-06T01:09:01.531Z,7.40
2019-04-06T01:11:30.828Z,7.40
2019-04-06T01:14:00.125Z,7.40
2019-04-06T01:16:29.340Z,7.40
2019-04-06T01:18:58.529Z,7.50
2019-04-06T01:21:27.476Z,7.40
2019-04-06T01:23:56.242Z,7.40
2019-04-06T01:26:25.391Z,7.40
2019-04-06T01:28:54.249Z,7.40
2019-04-06T01:31:23.488Z,7.40
2019-04-06T01:33:52.266Z,7.40
2019-04-06T01:36:21.473Z,7.50
2019-04-06T01:38:50.771Z,7.50
2019-04-06T01:41:19.570Z,7.50
2019-04-06T01:43:48.358Z,7.50
2019-04-06T01:46:17.309Z,7.60
2019-04-06T01:48:46.088Z,7.60
2019-04-06T01:51:15.326Z,7.60
2019-04-06T01:53:44.348Z,7.60
2019-04-06T01:56:18.484Z,7.60
2019-04-06T01:58:43.650Z,7.60
2019-04-06T02:01:28.599Z,7.60
2019-04-06T02:03:57.698Z,7.60
2019-04-06T02:06:26.517Z,7.60
2019-04-06T02:08:55.587Z,7.50
2019-04-06T02:11:24.491Z,7.60
2019-04-06T02:13:53.248Z,7.60
2019-04-06T02:16:22.039Z,7.60
2019-04-06T02:18:51.020Z,7.60
2019-04-06T02:21:20.157Z,7.60
2019-04-06T02:23:49.532Z,7.60
2019-04-06T02:26:29.161Z,7.60
2019-04-06T02:28:49.156Z,7.60
2019-04-06T02:31:46.536Z,7.60
2019-04-06T02:34:45.826Z,7.60
2019-04-06T02:37:33.329Z,7.60
2019-04-06T02:40:14.000Z,7.60
2019-04-06T02:42:46.905Z,7.60
2019-04-06T02:45:16.012Z,7.60
2019-04-06T02:47:45.312Z,7.60
2019-04-06T02:50:14.242Z,7.70
2019-04-06T02:52:43.457Z,7.70
2019-04-06T02:55:12.325Z,7.70
2019-04-06T02:57:41.383Z,7.70
2019-04-06T03:00:11.622Z,7.70
2019-04-06T03:02:40.654Z,7.70
2019-04-06T03:05:09.804Z,7.70
2019-04-06T03:07:38.817Z,7.70
2019-04-06T03:10:08.209Z,7.70
2019-04-06T03:12:37.327Z,7.70
2019-04-06T03:15:06.571Z,7.70
2019-04-06T03:17:35.430Z,7.70
2019-04-06T03:20:04.806Z,7.70
2019-04-06T03:22:34.091Z,7.70
2019-04-06T03:25:03.325Z,7.70
2019-04-06T03:27:32.485Z,7.70
2019-04-06T03:30:01.323Z,7.70
2019-04-06T03:32:30.446Z,7.70
2019-04-06T03:34:59.314Z,7.70
2019-04-06T03:37:28.295Z,7.70
2019-04-06T03:39:57.069Z,7.70
2019-04-06T03:42:26.233Z,7.70
2019-04-06T03:44:55.059Z,7.70
2019-04-06T03:47:23.991Z,7.70
2019-04-06T03:49:52.744Z,7.70
2019-04-06T03:52:21.651Z,7.70
2019-04-06T03:54:50.559Z,7.70
2019-04-06T03:57:19.375Z,7.70
2019-04-06T03:59:48.235Z,7.70
2019-04-06T04:02:17.107Z,7.70
2019-04-06T04:07:21.287Z,7.70
2019-04-06T04:09:50.077Z,7.70
2019-04-06T04:12:18.920Z,7.70
2019-04-06T04:14:48.070Z,7.70
2019-04-06T04:17:16.834Z,7.70
2019-04-06T04:19:45.753Z,7.70
2019-04-06T04:22:15.058Z,7.70
2019-04-06T04:24:43.861Z,7.70
2019-04-06T04:27:12.657Z,7.70
2019-04-06T04:29:41.922Z,7.70
2019-04-06T04:32:11.017Z,7.70
2019-04-06T04:34:39.896Z,7.70
2019-04-06T04:37:08.723Z,7.70
2019-04-06T04:39:37.984Z,7.70
2019-04-06T04:42:06.765Z,7.70
2019-04-06T04:44:35.965Z,7.70
2019-04-06T04:47:04.722Z,7.70
2019-04-06T04:49:34.012Z,7.70
2019-04-06T04:52:02.959Z,7.70
2019-04-06T04:54:31.767Z,7.70
2019-04-06T04:57:00.629Z,7.70
2019-04-06T04:59:29.866Z,7.70
2019-04-06T05:01:58.816Z,7.70
2019-04-06T05:04:27.650Z,7.70
2019-04-06T05:06:56.473Z,7.70
2019-04-06T05:09:25.705Z,7.70
2019-04-06T05:11:55.056Z,7.70
2019-04-06T05:14:59.144Z,7.70
2019-04-06T05:17:28.657Z,7.70
2019-04-06T05:19:58.142Z,7.70
2019-04-06T05:22:27.312Z,7.70
2019-04-06T05:24:56.197Z,7.70
2019-04-06T05:27:26.200Z,7.70
2019-04-06T05:29:55.111Z,7.70
2019-04-06T05:32:24.215Z,7.70
2019-04-06T05:34:53.350Z,7.80
2019-04-06T05:37:22.691Z,7.80
2019-04-06T05:39:52.150Z,7.80
2019-04-06T05:42:21.439Z,7.80
2019-04-06T05:44:50.620Z,7.80
2019-04-06T05:47:19.471Z,7.80
2019-04-06T05:49:48.351Z,7.80
2019-04-06T05:52:17.209Z,7.80
2019-04-06T05:54:46.028Z,7.80
2019-04-06T05:57:15.320Z,7.80
2019-04-06T05:59:44.235Z,7.90
2019-04-06T06:02:13.209Z,7.90
2019-04-06T06:04:42.621Z,7.90
2019-04-06T06:07:12.091Z,7.90
2019-04-06T06:09:41.185Z,7.90
2019-04-06T06:12:12.019Z,8.00
2019-04-06T06:14:41.158Z,8.00
2019-04-06T06:17:10.314Z,8.00
2019-04-06T06:19:39.538Z,8.00
2019-04-06T06:22:08.419Z,8.10
2019-04-06T06:24:42.542Z,8.10
2019-04-06T06:27:11.612Z,8.10
2019-04-06T06:29:40.734Z,8.10
2019-04-06T06:32:09.596Z,8.10
2019-04-06T06:34:38.994Z,8.20
2019-04-06T06:37:07.884Z,8.20
2019-04-06T06:39:37.302Z,8.30
2019-04-06T06:42:06.492Z,8.30
2019-04-06T06:44:35.559Z,8.30
2019-04-06T06:47:04.924Z,8.40
2019-04-06T06:49:34.113Z,8.40
2019-04-06T06:52:02.894Z,8.40
2019-04-06T06:54:32.125Z,8.50
2019-04-06T06:57:01.486Z,8.50
2019-04-06T06:59:30.574Z,8.60
2019-04-06T07:01:59.774Z,8.60
2019-04-06T07:04:29.287Z,8.70
2019-04-06T07:06:58.158Z,8.70
2019-04-06T07:09:27.282Z,8.70
2019-04-06T07:11:56.733Z,8.80
2019-04-06T07:14:25.610Z,8.80
2019-04-06T07:16:54.755Z,8.80
2019-04-06T07:19:24.060Z,8.80
2019-04-06T07:21:52.940Z,8.80
2019-04-06T07:24:22.042Z,8.90
2019-04-06T07:26:51.505Z,8.90
2019-04-06T07:29:20.333Z,8.90
2019-04-06T07:31:49.430Z,8.90
2019-04-06T07:34:18.458Z,9.00
2019-04-06T07:36:47.852Z,9.10
2019-04-06T07:39:16.861Z,9.10
2019-04-06T07:41:45.918Z,9.10
2019-04-06T07:44:14.797Z,9.20
2019-04-06T07:46:43.963Z,9.20
2019-04-06T07:49:12.997Z,9.20
2019-04-06T07:51:42.715Z,9.30
2019-04-06T07:54:11.592Z,9.30
2019-04-06T07:56:40.415Z,9.40
2019-04-06T07:59:09.792Z,9.50
2019-04-06T08:01:39.282Z,9.50
2019-04-06T08:04:08.191Z,9.60
2019-04-06T08:06:37.309Z,9.60
2019-04-06T08:09:08.078Z,9.70
2019-04-06T08:11:37.227Z,9.80
2019-04-06T08:14:06.524Z,9.90
2019-04-06T08:16:35.741Z,10.00
2019-04-06T08:19:04.702Z,10.10
2019-04-06T08:21:33.908Z,10.20
2019-04-06T08:24:03.172Z,10.20
2019-04-06T08:26:32.087Z,10.30
2019-04-06T08:29:02.392Z,10.40
2019-04-06T08:31:31.738Z,10.40
2019-04-06T08:34:00.996Z,10.50
2019-04-06T08:36:30.208Z,10.50
2019-04-06T08:38:59.656Z,10.60
2019-04-06T08:41:28.603Z,10.60
2019-04-06T08:43:57.633Z,10.70
2019-04-06T08:46:28.961Z,10.90
2019-04-06T08:48:58.130Z,10.90
2019-04-06T08:51:27.685Z,10.90
2019-04-06T08:53:56.786Z,10.90
2019-04-06T08:56:26.370Z,10.90
2019-04-06T08:58:55.483Z,10.90
2019-04-06T09:01:24.692Z,10.80
2019-04-06T09:03:53.767Z,10.70
2019-04-06T09:06:23.109Z,10.60
2019-04-06T09:08:52.462Z,10.60
2019-04-06T09:16:30.217Z,10.70
2019-04-06T09:18:59.502Z,10.90
2019-04-06T09:21:28.493Z,11.00
2019-04-06T09:23:58.640Z,11.20
2019-04-06T09:26:28.366Z,11.30
2019-04-06T09:28:59.468Z,11.30
2019-04-06T09:31:28.130Z,11.40
2019-04-06T09:33:57.201Z,11.50
2019-04-06T09:36:26.381Z,11.60
2019-04-06T09:38:55.711Z,11.70
2019-04-06T09:41:26.528Z,11.80
2019-04-06T09:43:55.491Z,11.80
2019-04-06T09:46:37.213Z,11.90
2019-04-06T09:49:13.666Z,11.90
2019-04-06T09:52:08.334Z,11.90
2019-04-06T09:54:55.859Z,11.90
2019-04-06T09:57:50.454Z,11.90
2019-04-06T10:00:25.522Z,11.90
2019-04-06T10:03:22.663Z,11.90
2019-04-06T10:06:19.976Z,11.80
2019-04-06T10:09:07.830Z,11.90
2019-04-06T10:11:54.793Z,11.90
2019-04-06T10:14:49.767Z,12.10
2019-04-06T10:17:33.782Z,12.20
2019-04-06T10:20:14.655Z,12.30
2019-04-06T10:23:14.837Z,12.40
2019-04-06T10:26:08.578Z,12.50
2019-04-06T10:29:03.253Z,12.60
2019-04-06T10:31:57.482Z,12.80
2019-04-06T10:35:03.753Z,12.90
2019-04-06T10:37:43.858Z,13.10
2019-04-06T10:40:31.925Z,13.20
2019-04-06T10:43:19.126Z,13.30
2019-04-06T10:46:19.455Z,13.50
2019-04-06T10:48:59.938Z,13.60
2019-04-06T10:51:53.850Z,13.70
2019-04-06T10:54:44.479Z,13.80
2019-04-06T10:57:41.810Z,13.90
2019-04-06T11:00:28.883Z,13.90
2019-04-06T11:03:13.886Z,14.00
2019-04-06T11:05:54.607Z,14.10
2019-04-06T11:08:58.769Z,14.20
2019-04-06T11:11:51.511Z,14.30
2019-04-06T11:14:36.567Z,14.40
2019-04-06T11:17:23.723Z,14.50
2019-04-06T11:20:11.829Z,14.50
2019-04-06T11:22:57.495Z,14.60
2019-04-06T11:25:51.987Z,14.80
2019-04-06T11:28:26.443Z,14.90
2019-04-06T11:31:10.795Z,15.00
2019-04-06T11:34:05.052Z,15.10
2019-04-06T11:37:05.116Z,15.30
2019-04-06T11:39:59.230Z,15.40
2019-04-06T11:42:49.253Z,15.50
2019-04-06T11:45:42.245Z,15.60
2019-04-06T11:48:45.127Z,15.50
2019-04-06T11:51:31.018Z,15.60
2019-04-06T11:54:19.041Z,15.70
2019-04-06T11:57:03.324Z,15.80
2019-04-06T12:00:03.901Z,15.90
2019-04-06T12:02:49.718Z,15.90
2019-04-06T12:05:37.171Z,15.90
2019-04-06T12:08:12.568Z,15.90
2019-04-06T12:10:53.746Z,16.00
2019-04-06T12:13:28.762Z,15.90
2019-04-06T12:16:23.002Z,15.90
2019-04-06T12:19:00.704Z,15.90
2019-04-06T12:21:49.128Z,15.80
2019-04-06T12:24:52.893Z,15.80
2019-04-06T12:27:44.304Z,15.80
2019-04-06T12:30:37.217Z,15.80
2019-04-06T12:33:19.913Z,15.70
2019-04-06T12:36:10.958Z,15.70
2019-04-06T12:38:57.568Z,15.70
2019-04-06T12:41:45.789Z,15.70
2019-04-06T12:44:39.863Z,15.80
2019-04-06T12:47:26.422Z,15.90
2019-04-06T12:50:09.371Z,16.00
2019-04-06T12:53:03.657Z,16.10
2019-04-06T12:55:55.488Z,16.30
2019-04-06T12:59:01.955Z,16.30
2019-04-06T13:01:50.065Z,16.30
2019-04-06T13:04:40.019Z,16.30
2019-04-06T13:07:23.887Z,16.30
2019-04-06T13:10:13.615Z,16.30
2019-04-06T13:13:00.919Z,16.30
2019-04-06T13:15:47.854Z,16.20
2019-04-06T13:18:38.769Z,16.10
2019-04-06T13:21:25.824Z,16.10
2019-04-06T13:24:04.582Z,16.10
2019-04-06T13:26:43.962Z,16.20
2019-04-06T13:29:41.287Z,16.00
2019-04-06T13:32:34.826Z,15.90
2019-04-06T13:35:37.899Z,15.80
2019-04-06T13:38:33.345Z,15.70
2019-04-06T13:41:20.098Z,15.70
2019-04-06T13:44:23.244Z,15.70
2019-04-06T13:47:10.449Z,15.70
2019-04-06T13:49:58.737Z,15.70
2019-04-06T13:52:47.282Z,15.70
2019-04-06T13:55:34.737Z,15.80
2019-04-06T13:58:19.075Z,15.80
2019-04-06T14:01:14.359Z,15.80
2019-04-06T14:03:51.161Z,15.70
2019-04-06T14:06:42.387Z,15.70
2019-04-06T14:09:22.186Z,15.80
2019-04-06T14:12:14.182Z,15.90
2019-04-06T14:15:08.507Z,16.10
2019-04-06T14:17:51.313Z,16.10
2019-04-06T14:20:37.159Z,16.30
2019-04-06T14:23:19.020Z,16.50
2019-04-06T14:26:10.130Z,16.60
2019-04-06T14:28:57.241Z,16.60
2019-04-06T14:31:44.312Z,16.70
2019-04-06T14:34:31.492Z,16.70
2019-04-06T14:37:25.255Z,16.70
2019-04-06T14:40:12.093Z,16.70
2019-04-06T14:43:07.052Z,16.60
2019-04-06T14:45:58.233Z,16.70
2019-04-06T14:48:41.387Z,16.70
2019-04-06T14:51:32.837Z,16.80
2019-04-06T14:54:10.767Z,17.00
2019-04-06T14:57:18.047Z,17.20
2019-04-06T15:00:01.907Z,17.40
2019-04-06T15:02:40.049Z,17.60
2019-04-06T15:05:19.381Z,17.80
2019-04-06T15:08:00.538Z,18.00
2019-04-06T15:10:42.257Z,18.10
2019-04-06T15:13:34.653Z,18.20
2019-04-06T15:16:18.616Z,18.20
2019-04-06T15:19:12.878Z,18.30
2019-04-06T15:22:06.894Z,18.40
2019-04-06T15:25:03.969Z,18.50
2019-04-06T15:27:51.130Z,18.60
2019-04-06T15:30:39.331Z,18.60
2019-04-06T15:33:26.723Z,18.60
2019-04-06T15:36:14.912Z,18.50
2019-04-06T15:38:54.045Z,18.50
2019-04-06T15:41:32.636Z,18.50
2019-04-06T15:44:21.153Z,18.60
2019-04-06T15:47:00.965Z,18.60
2019-04-06T15:50:01.551Z,18.60
2019-04-06T15:52:44.635Z,18.60
2019-04-06T15:55:20.066Z,18.60
2019-04-06T15:58:17.410Z,18.50
2019-04-06T16:01:11.710Z,18.50
2019-04-06T16:03:51.155Z,18.40
2019-04-06T16:06:39.272Z,18.40
2019-04-06T16:09:27.268Z,18.30
2019-04-06T16:12:08.626Z,18.30
2019-04-06T16:14:53.217Z,18.30
2019-04-06T16:17:35.110Z,18.20
2019-04-06T16:20:10.753Z,18.20
2019-04-06T16:23:08.002Z,18.20
2019-04-06T16:25:50.890Z,18.10
2019-04-06T16:28:31.268Z,18.00
2019-04-06T16:31:25.322Z,18.00
2019-04-06T16:34:28.731Z,17.90
2019-04-06T16:37:11.586Z,17.90
2019-04-06T16:39:50.981Z,17.80
2019-04-06T16:42:33.839Z,17.70
2019-04-06T16:45:28.203Z,17.70
2019-04-06T16:48:18.846Z,17.60
2019-04-06T16:50:59.949Z,17.50
2019-04-06T16:53:48.701Z,17.40
2019-04-06T16:56:22.957Z,17.30
2019-04-06T16:59:03.384Z,17.30
2019-04-06T17:01:41.656Z,17.20
2019-04-06T17:04:28.477Z,17.10
2019-04-06T17:07:16.702Z,17.00
2019-04-06T17:10:02.089Z,16.90
2019-04-06T17:12:47.805Z,16.80
2019-04-06T17:15:30.641Z,16.70
2019-04-06T17:18:10.815Z,16.70
2019-04-06T17:21:02.758Z,16.60
2019-04-06T17:23:40.225Z,16.50
2019-04-06T17:26:28.827Z,16.40
2019-04-06T17:29:09.238Z,16.30
2019-04-06T17:31:44.629Z,16.20
2019-04-06T17:34:27.739Z,16.00
2019-04-06T17:37:21.578Z,15.90
2019-04-06T17:40:06.169Z,15.80
2019-04-06T17:42:42.286Z,15.70
2019-04-06T17:45:30.914Z,15.60
2019-04-06T17:48:30.896Z,15.60
2019-04-06T17:51:04.686Z,15.50
2019-04-06T17:53:53.042Z,15.40
2019-04-06T17:56:59.717Z,15.30
2019-04-06T17:59:52.406Z,15.20
2019-04-06T18:02:48.740Z,15.10
2019-04-06T18:05:36.230Z,15.10
2019-04-06T18:08:14.825Z,15.00
2019-04-06T18:11:00.652Z,15.00
2019-04-06T18:14:03.771Z,14.80
2019-04-06T18:16:35.369Z,14.80
2019-04-06T18:19:04.860Z,14.70
2019-04-06T18:21:33.695Z,14.60
2019-04-06T18:24:02.561Z,14.50
2019-04-06T18:26:31.698Z,14.40
2019-04-06T18:29:00.862Z,14.30
2019-04-06T18:31:58.137Z,14.20
2019-04-06T18:34:27.347Z,14.10
2019-04-06T18:37:14.326Z,14.00
2019-04-06T18:39:43.578Z,13.90
2019-04-06T18:42:12.422Z,13.80
2019-04-06T18:44:41.899Z,13.70
2019-04-06T18:47:11.810Z,13.60
2019-04-06T18:49:40.883Z,13.50
2019-04-06T18:52:10.042Z,13.40
2019-04-06T18:54:39.580Z,13.30
2019-04-06T18:57:08.374Z,13.20
2019-04-06T18:59:38.017Z,13.10
2019-04-06T19:02:08.675Z,13.10
2019-04-06T19:04:37.886Z,13.00
2019-04-06T19:07:07.800Z,12.90
2019-04-06T19:09:36.881Z,12.90
2019-04-06T19:12:05.742Z,12.80
2019-04-06T19:14:34.874Z,12.80
2019-04-06T19:17:04.477Z,12.70
2019-04-06T19:19:34.113Z,12.70
2019-04-06T19:22:03.669Z,12.60
2019-04-06T19:24:32.675Z,12.50
2019-04-06T19:27:01.864Z,12.50
2019-04-06T19:29:30.753Z,12.40
2019-04-06T19:32:00.203Z,12.30
2019-04-06T19:34:29.798Z,12.20
2019-04-06T19:36:59.091Z,12.20
2019-04-06T19:39:29.016Z,12.10
2019-04-06T19:41:59.426Z,12.00
2019-04-06T19:44:28.632Z,12.00
2019-04-06T19:46:57.412Z,12.00
2019-04-06T19:49:26.297Z,11.90
2019-04-06T19:51:55.458Z,11.90
2019-04-06T19:54:24.614Z,11.90
2019-04-06T19:56:54.138Z,11.80
2019-04-06T19:59:23.053Z,11.80
2019-04-06T20:01:51.957Z,11.70
2019-04-06T20:04:21.736Z,11.70
2019-04-06T20:06:50.630Z,11.60
2019-04-06T20:09:19.787Z,11.50
2019-04-06T20:11:48.770Z,11.50
2019-04-06T20:14:17.757Z,11.40
2019-04-06T20:16:46.529Z,11.40
2019-04-06T20:19:15.338Z,11.30
2019-04-06T20:21:44.109Z,11.30
2019-04-06T20:24:13.958Z,11.30
2019-04-06T20:26:43.567Z,11.20
2019-04-06T20:29:12.761Z,11.20
2019-04-06T20:31:42.269Z,11.20
2019-04-06T20:34:11.871Z,11.20
2019-04-06T20:36:40.854Z,11.10
2019-04-06T20:39:11.937Z,11.10
2019-04-06T20:41:40.787Z,11.10
2019-04-06T20:44:09.633Z,11.00
2019-04-06T20:46:38.673Z,11.00
2019-04-06T20:51:42.587Z,10.90
2019-04-06T20:54:11.748Z,10.90
2019-04-06T20:56:52.475Z,10.80
2019-04-06T20:59:12.047Z,10.80
2019-04-06T21:01:41.675Z,10.80
2019-04-06T21:04:14.169Z,10.70
2019-04-06T21:06:42.945Z,10.70
2019-04-06T21:09:14.022Z,10.70
2019-04-06T21:11:43.401Z,10.70
2019-04-06T21:14:12.867Z,10.60
2019-04-06T21:16:41.963Z,10.60
2019-04-06T21:19:11.438Z,10.60
2019-04-06T21:21:40.673Z,10.60
2019-04-06T21:24:10.286Z,10.50
2019-04-06T21:26:39.200Z,10.50
2019-04-06T21:29:09.002Z,10.50
2019-04-06T21:31:38.494Z,10.40
2019-04-06T21:34:12.714Z,10.40
2019-04-06T21:36:38.419Z,10.40
2019-04-06T21:39:08.087Z,10.30
2019-04-06T21:41:37.433Z,10.30
2019-04-06T21:44:06.569Z,10.30
2019-04-06T21:46:36.035Z,10.20
2019-04-06T21:49:04.889Z,10.20
2019-04-06T21:51:35.323Z,10.20
2019-04-06T21:54:04.648Z,10.20
2019-04-06T21:56:34.155Z,10.10
2019-04-06T21:59:03.014Z,10.10
2019-04-06T22:01:32.550Z,10.10
2019-04-06T22:04:02.317Z,10.10
2019-04-06T22:06:31.686Z,10.00
2019-04-06T22:09:00.531Z,10.00
2019-04-06T22:11:29.343Z,10.00
2019-04-06T22:13:58.981Z,10.00
2019-04-06T22:16:28.031Z,9.90
2019-04-06T22:18:57.133Z,9.90
2019-04-06T22:21:26.329Z,9.90
2019-04-06T22:23:55.149Z,9.90
2019-04-06T22:26:24.777Z,9.90
2019-04-06T22:28:53.836Z,9.90
2019-04-06T22:31:22.936Z,9.90
2019-04-06T22:33:51.786Z,9.90
2019-04-06T22:36:20.919Z,9.90
2019-04-06T22:38:49.684Z,9.80
2019-04-06T22:41:18.577Z,9.80
2019-04-06T22:43:47.845Z,9.80
2019-04-06T22:46:17.104Z,9.80
2019-04-06T22:48:45.921Z,9.80
2019-04-06T22:51:14.883Z,9.80
2019-04-06T22:53:44.047Z,9.80
2019-04-06T22:56:13.425Z,9.80
2019-04-06T22:58:42.190Z,9.80
2019-04-06T23:01:15.409Z,9.80
2019-04-06T23:04:21.729Z,9.70
2019-04-06T23:07:02.969Z,9.70
2019-04-06T23:09:32.444Z,9.70
2019-04-06T23:12:01.855Z,9.70
2019-04-06T23:14:31.687Z,9.70
2019-04-06T23:17:00.864Z,9.70
2019-04-06T23:19:30.849Z,9.80
2019-04-06T23:22:00.071Z,9.80
2019-04-06T23:24:28.929Z,9.80
2019-04-06T23:26:58.141Z,9.80
2019-04-06T23:29:27.246Z,9.80
2019-04-06T23:31:56.664Z,9.80
2019-04-06T23:34:25.919Z,9.80
2019-04-06T23:36:55.769Z,9.80
2019-04-06T23:39:25.200Z,9.80
2019-04-06T23:41:54.172Z,9.80
2019-04-06T23:44:22.981Z,9.80
2019-04-06T23:46:51.932Z,9.80
2019-04-06T23:49:20.766Z,9.80
2019-04-06T23:51:49.830Z,9.90
2019-04-06T23:54:19.226Z,9.90
2019-04-06T23:56:48.557Z,9.90
2019-04-06T23:59:17.612Z,9.90
